To NAV CANADA Home Page Login to a new session Search on AWWS site Feedback and Comments Disclaimer Vers la page française équivalente Tips FAQ What's new on the site To the Forecasts and Observations / NOTAM section To "File a Flight Plan" website Publications and other links Update of the User's profile FIC Telephone Numbers My Weather Data Folder Route Weather Data Regional Weather Data Local Weather Data To the Forecasts and Observations / NOTAM section
Request Generated 04/19/2015 at 12:48:59 UTC . Weather information available at that time is displayed.

METAR/TAF

CLYDE RIVER/NU    (show WxCam)

METAR CYCY 191200Z AUTO 30015KT 9SM CLR M19/M22 A2994 RMK SLP141=
METAR CYCY 191100Z AUTO 30014KT 9SM CLR M20/M23 A2993 RMK SLP139=
SPECI CYCY 191021Z AUTO 30016KT 9SM SCT042 M20/M23 A2992 RMK SLP137=
SPECI CYCY 191008Z AUTO 30017KT 6SM -SN BKN046 M20/M23 A2992 RMK
SLP137=
SPECI CYCY 191001Z AUTO 30017KT 5SM -SN BKN048 M20/M23 A2992 RMK
SLP137=
METAR CYCY 191000Z AUTO 30017KT 6SM -SN BKN048 BKN060 M20/M23 A2992
RMK SLP137=

TAF CYCY 191238Z 1913/2001 30015KT P6SM FEW040
BECMG 1920/1922 30008KT
RMK FCST BASED ON AUTO OBS. NXT FCST BY 191900Z=
Your time UTC time
Weather data provided by Environment Canada and NAV CANADA